sensor_id;sensor_type;location;lat;lon;timestamp;pressure;altitude;pressure_sealevel;temperature;humidity
47753;BME280;2038;51.728;6.674;2023-04-15T00:02:16;100161.03;;;8.15;93.95
47753;BME280;2038;51.728;6.674;2023-04-15T00:04:45;100155.66;;;8.11;94.05
47753;BME280;2038;51.728;6.674;2023-04-15T00:07:11;100149.63;;;8.09;93.35
47753;BME280;2038;51.728;6.674;2023-04-15T00:09:38;100151.16;;;8.07;94.47
47753;BME280;2038;51.728;6.674;2023-04-15T00:12:06;100154.59;;;8.07;94.95
47753;BME280;2038;51.728;6.674;2023-04-15T00:14:34;100154.00;;;8.11;95.36
47753;BME280;2038;51.728;6.674;2023-04-15T00:17:03;100150.00;;;8.15;95.19
47753;BME280;2038;51.728;6.674;2023-04-15T00:19:30;100156.19;;;8.18;95.50
47753;BME280;2038;51.728;6.674;2023-04-15T00:21:57;100155.50;;;8.21;95.03
47753;BME280;2038;51.728;6.674;2023-04-15T00:24:23;100149.53;;;8.20;94.50
47753;BME280;2038;51.728;6.674;2023-04-15T00:26:49;100154.50;;;8.19;95.09
47753;BME280;2038;51.728;6.674;2023-04-15T00:29:16;100152.78;;;8.18;95.80
47753;BME280;2038;51.728;6.674;2023-04-15T00:31:42;100157.16;;;8.20;95.37
47753;BME280;2038;51.728;6.674;2023-04-15T00:34:08;100155.78;;;8.12;96.09
47753;BME280;2038;51.728;6.674;2023-04-15T00:36:34;100156.66;;;8.13;95.77
47753;BME280;2038;51.728;6.674;2023-04-15T00:39:01;100154.13;;;8.13;96.49
47753;BME280;2038;51.728;6.674;2023-04-15T00:41:28;100150.88;;;8.15;95.76
47753;BME280;2038;51.728;6.674;2023-04-15T00:43:54;100153.25;;;8.12;95.57
47753;BME280;2038;51.728;6.674;2023-04-15T00:46:22;100152.03;;;8.07;96.27
47753;BME280;2038;51.728;6.674;2023-04-15T00:48:48;100158.13;;;8.09;96.57
47753;BME280;2038;51.728;6.674;2023-04-15T00:51:16;100158.44;;;8.14;96.30
47753;BME280;2038;51.728;6.674;2023-04-15T00:53:42;100155.66;;;8.11;96.55
47753;BME280;2038;51.728;6.674;2023-04-15T00:56:09;100162.47;;;7.98;97.05
47753;BME280;2038;51.728;6.674;2023-04-15T00:58:35;100163.97;;;8.08;96.63
47753;BME280;2038;51.728;6.674;2023-04-15T01:01:02;100160.38;;;8.18;96.41
47753;BME280;2038;51.728;6.674;2023-04-15T01:03:29;100163.28;;;8.11;96.58
47753;BME280;2038;51.728;6.674;2023-04-15T01:05:56;100164.25;;;7.99;97.25
47753;BME280;2038;51.728;6.674;2023-04-15T01:08:28;100159.44;;;7.91;97.11
47753;BME280;2038;51.728;6.674;2023-04-15T01:10:57;100150.94;;;7.90;97.22
47753;BME280;2038;51.728;6.674;2023-04-15T01:13:27;100153.28;;;7.87;98.07
47753;BME280;2038;51.728;6.674;2023-04-15T01:15:53;100148.97;;;7.86;98.64
47753;BME280;2038;51.728;6.674;2023-04-15T01:18:22;100158.16;;;7.84;98.23
47753;BME280;2038;51.728;6.674;2023-04-15T01:20:49;100161.47;;;7.83;97.96
47753;BME280;2038;51.728;6.674;2023-04-15T01:23:15;100161.59;;;7.85;98.82
47753;BME280;2038;51.728;6.674;2023-04-15T01:25:43;100153.97;;;7.85;98.69
47753;BME280;2038;51.728;6.674;2023-04-15T01:28:10;100151.75;;;7.89;98.01
47753;BME280;2038;51.728;6.674;2023-04-15T01:30:36;100152.41;;;7.87;98.36
47753;BME280;2038;51.728;6.674;2023-04-15T01:33:03;100151.44;;;7.85;98.08
47753;BME280;2038;51.728;6.674;2023-04-15T01:35:29;100152.63;;;7.90;97.92
47753;BME280;2038;51.728;6.674;2023-04-15T01:38:07;100152.66;;;7.78;98.35
47753;BME280;2038;51.728;6.674;2023-04-15T01:40:34;100159.13;;;7.73;98.24
47753;BME280;2038;51.728;6.674;2023-04-15T01:43:01;100158.91;;;7.70;99.18
47753;BME280;2038;51.728;6.674;2023-04-15T01:45:28;100157.91;;;7.68;98.48
47753;BME280;2038;51.728;6.674;2023-04-15T01:47:55;100157.72;;;7.65;99.04
47753;BME280;2038;51.728;6.674;2023-04-15T01:50:21;100149.69;;;7.59;98.41
47753;BME280;2038;51.728;6.674;2023-04-15T01:52:47;100154.25;;;7.51;99.36
47753;BME280;2038;51.728;6.674;2023-04-15T01:55:14;100160.78;;;7.48;99.75
47753;BME280;2038;51.728;6.674;2023-04-15T01:57:40;100165.22;;;7.39;98.97
47753;BME280;2038;51.728;6.674;2023-04-15T02:00:07;100161.59;;;7.35;99.69
47753;BME280;2038;51.728;6.674;2023-04-15T02:02:34;100160.94;;;7.38;99.85
47753;BME280;2038;51.728;6.674;2023-04-15T02:05:00;100164.31;;;7.38;99.78
47753;BME280;2038;51.728;6.674;2023-04-15T02:07:27;100169.50;;;7.40;99.59
47753;BME280;2038;51.728;6.674;2023-04-15T02:09:57;100167.97;;;7.42;99.63
47753;BME280;2038;51.728;6.674;2023-04-15T02:12:23;100166.09;;;7.39;100.00
47753;BME280;2038;51.728;6.674;2023-04-15T02:14:49;100165.38;;;7.29;100.00
47753;BME280;2038;51.728;6.674;2023-04-15T02:17:15;100169.09;;;7.34;100.00
47753;BME280;2038;51.728;6.674;2023-04-15T02:19:42;100163.03;;;7.32;100.00
47753;BME280;2038;51.728;6.674;2023-04-15T02:22:08;100159.06;;;7.35;100.00
47753;BME280;2038;51.728;6.674;2023-04-15T02:24:36;100162.22;;;7.44;100.00
47753;BME280;2038;51.728;6.674;2023-04-15T02:27:02;100164.56;;;7.41;100.00
47753;BME280;2038;51.728;6.674;2023-04-15T02:29:30;100180.94;;;7.46;100.00
47753;BME280;2038;51.728;6.674;2023-04-15T02:31:57;100171.59;;;7.45;100.00
47753;BME280;2038;51.728;6.674;2023-04-15T02:34:23;100176.53;;;7.44;100.00
47753;BME280;2038;51.728;6.674;2023-04-15T02:36:49;100184.50;;;7.37;100.00
47753;BME280;2038;51.728;6.674;2023-04-15T02:39:19;100181.66;;;7.32;100.00
47753;BME280;2038;51.728;6.674;2023-04-15T02:41:46;100184.06;;;7.31;100.00
47753;BME280;2038;51.728;6.674;2023-04-15T02:44:16;100198.06;;;7.37;100.00
47753;BME280;2038;51.728;6.674;2023-04-15T02:46:46;100195.53;;;7.37;100.00
47753;BME280;2038;51.728;6.674;2023-04-15T02:49:17;100187.63;;;7.33;100.00
47753;BME280;2038;51.728;6.674;2023-04-15T02:51:43;100192.00;;;7.35;100.00
47753;BME280;2038;51.728;6.674;2023-04-15T02:54:18;100194.13;;;7.29;100.00
47753;BME280;2038;51.728;6.674;2023-04-15T02:56:45;100197.44;;;7.28;100.00
47753;BME280;2038;51.728;6.674;2023-04-15T02:59:14;100193.34;;;7.30;100.00
47753;BME280;2038;51.728;6.674;2023-04-15T03:01:40;100193.56;;;7.33;100.00
47753;BME280;2038;51.728;6.674;2023-04-15T03:04:07;100195.09;;;7.31;100.00
47753;BME280;2038;51.728;6.674;2023-04-15T03:06:34;100199.75;;;7.25;100.00
47753;BME280;2038;51.728;6.674;2023-04-15T03:09:00;100199.97;;;7.28;100.00
47753;BME280;2038;51.728;6.674;2023-04-15T03:11:31;100200.66;;;7.26;100.00
47753;BME280;2038;51.728;6.674;2023-04-15T03:13:58;100206.38;;;7.23;100.00
47753;BME280;2038;51.728;6.674;2023-04-15T03:16:24;100206.56;;;7.26;100.00
47753;BME280;2038;51.728;6.674;2023-04-15T03:18:50;100206.00;;;7.30;100.00
47753;BME280;2038;51.728;6.674;2023-04-15T03:21:17;100216.19;;;7.19;100.00
47753;BME280;2038;51.728;6.674;2023-04-15T03:23:44;100211.09;;;7.19;100.00
47753;BME280;2038;51.728;6.674;2023-04-15T03:26:25;100210.53;;;7.23;100.00
47753;BME280;2038;51.728;6.674;2023-04-15T03:28:52;100211.44;;;7.23;100.00
47753;BME280;2038;51.728;6.674;2023-04-15T03:31:18;100213.31;;;7.26;100.00
47753;BME280;2038;51.728;6.674;2023-04-15T03:33:44;100214.19;;;7.15;100.00
47753;BME280;2038;51.728;6.674;2023-04-15T03:36:10;100214.19;;;7.15;100.00
47753;BME280;2038;51.728;6.674;2023-04-15T03:38:36;100204.34;;;7.06;100.00
47753;BME280;2038;51.728;6.674;2023-04-15T03:41:03;100211.94;;;7.06;100.00
47753;BME280;2038;51.728;6.674;2023-04-15T03:43:29;100219.53;;;7.06;100.00
47753;BME280;2038;51.728;6.674;2023-04-15T03:45:56;100215.56;;;6.98;100.00
47753;BME280;2038;51.728;6.674;2023-04-15T03:48:22;100216.34;;;6.97;100.00
47753;BME280;2038;51.728;6.674;2023-04-15T03:50:48;100222.94;;;6.95;100.00
47753;BME280;2038;51.728;6.674;2023-04-15T03:53:15;100220.97;;;6.91;100.00
47753;BME280;2038;51.728;6.674;2023-04-15T03:55:41;100225.69;;;6.86;100.00
47753;BME280;2038;51.728;6.674;2023-04-15T03:58:07;100227.25;;;6.84;100.00
47753;BME280;2038;51.728;6.674;2023-04-15T04:00:38;100240.03;;;6.86;100.00
47753;BME280;2038;51.728;6.674;2023-04-15T04:03:04;100233.97;;;6.84;100.00
47753;BME280;2038;51.728;6.674;2023-04-15T04:05:31;100239.25;;;6.87;100.00
47753;BME280;2038;51.728;6.674;2023-04-15T04:07:57;100241.69;;;6.85;100.00
47753;BME280;2038;51.728;6.674;2023-04-15T04:10:23;100236.84;;;6.88;100.00
47753;BME280;2038;51.728;6.674;2023-04-15T04:12:49;100247.31;;;6.81;100.00
47753;BME280;2038;51.728;6.674;2023-04-15T04:15:16;100252.91;;;6.77;100.00
47753;BME280;2038;51.728;6.674;2023-04-15T04:17:42;100253.81;;;6.78;100.00
47753;BME280;2038;51.728;6.674;2023-04-15T04:20:08;100252.91;;;6.77;100.00
47753;BME280;2038;51.728;6.674;2023-04-15T04:22:41;100244.75;;;6.93;100.00
47753;BME280;2038;51.728;6.674;2023-04-15T04:25:08;100258.41;;;6.83;100.00
47753;BME280;2038;51.728;6.674;2023-04-15T04:27:35;100258.06;;;6.79;100.00
47753;BME280;2038;51.728;6.674;2023-04-15T04:30:02;100264.78;;;6.78;100.00
47753;BME280;2038;51.728;6.674;2023-04-15T04:32:28;100258.97;;;6.79;100.00
47753;BME280;2038;51.728;6.674;2023-04-15T04:34:55;100263.13;;;6.79;100.00
47753;BME280;2038;51.728;6.674;2023-04-15T04:37:21;100264.78;;;6.78;100.00
47753;BME280;2038;51.728;6.674;2023-04-15T04:39:48;100270.84;;;6.80;100.00
47753;BME280;2038;51.728;6.674;2023-04-15T04:42:14;100277.16;;;6.74;100.00
47753;BME280;2038;51.728;6.674;2023-04-15T04:44:41;100268.19;;;6.67;100.00
47753;BME280;2038;51.728;6.674;2023-04-15T04:47:07;100270.84;;;6.69;100.00
47753;BME280;2038;51.728;6.674;2023-04-15T04:49:33;100272.28;;;6.65;100.00
47753;BME280;2038;51.728;6.674;2023-04-15T04:51:59;100273.72;;;6.62;100.00
47753;BME280;2038;51.728;6.674;2023-04-15T04:54:26;100276.78;;;6.57;100.00
47753;BME280;2038;51.728;6.674;2023-04-15T04:56:52;100281.59;;;6.54;100.00
47753;BME280;2038;51.728;6.674;2023-04-15T04:59:18;100276.88;;;6.59;100.00
47753;BME280;2038;51.728;6.674;2023-04-15T05:01:45;100282.84;;;6.59;100.00
47753;BME280;2038;51.728;6.674;2023-04-15T05:04:11;100288.25;;;6.64;100.00
47753;BME280;2038;51.728;6.674;2023-04-15T05:06:37;100287.22;;;6.62;100.00
47753;BME280;2038;51.728;6.674;2023-04-15T05:09:03;100287.13;;;6.61;100.00
47753;BME280;2038;51.728;6.674;2023-04-15T05:11:30;100295.28;;;6.80;100.00
47753;BME280;2038;51.728;6.674;2023-04-15T05:13:56;100290.03;;;6.77;100.00
47753;BME280;2038;51.728;6.674;2023-04-15T05:16:24;100295.09;;;6.77;100.00
47753;BME280;2038;51.728;6.674;2023-04-15T05:18:50;100299.25;;;6.76;100.00
47753;BME280;2038;51.728;6.674;2023-04-15T05:21:17;100302.00;;;6.79;100.00
47753;BME280;2038;51.728;6.674;2023-04-15T05:23:44;100304.53;;;6.79;100.00
47753;BME280;2038;51.728;6.674;2023-04-15T05:26:10;100306.19;;;6.79;100.00
47753;BME280;2038;51.728;6.674;2023-04-15T05:28:36;100309.19;;;6.85;100.00
47753;BME280;2038;51.728;6.674;2023-04-15T05:31:03;100313.78;;;6.90;100.00
47753;BME280;2038;51.728;6.674;2023-04-15T05:33:29;100313.16;;;6.93;100.00
47753;BME280;2038;51.728;6.674;2023-04-15T05:35:55;100315.34;;;7.00;100.00
47753;BME280;2038;51.728;6.674;2023-04-15T05:38:21;100319.66;;;7.01;100.00
47753;BME280;2038;51.728;6.674;2023-04-15T05:40:48;100330.22;;;7.07;100.00
47753;BME280;2038;51.728;6.674;2023-04-15T05:43:14;100326.78;;;7.06;100.00
47753;BME280;2038;51.728;6.674;2023-04-15T05:45:40;100338.59;;;7.06;100.00
47753;BME280;2038;51.728;6.674;2023-04-15T05:48:07;100341.34;;;7.09;100.00
47753;BME280;2038;51.728;6.674;2023-04-15T05:50:33;100336.38;;;7.11;100.00
47753;BME280;2038;51.728;6.674;2023-04-15T05:53:00;100339.25;;;7.15;100.00
47753;BME280;2038;51.728;6.674;2023-04-15T05:55:26;100344.84;;;7.23;100.00
47753;BME280;2038;51.728;6.674;2023-04-15T05:57:53;100342.66;;;7.27;100.00
47753;BME280;2038;51.728;6.674;2023-04-15T06:00:19;100350.38;;;7.40;100.00
47753;BME280;2038;51.728;6.674;2023-04-15T06:02:46;100355.09;;;7.47;100.00
47753;BME280;2038;51.728;6.674;2023-04-15T06:05:12;100358.97;;;7.54;100.00
47753;BME280;2038;51.728;6.674;2023-04-15T06:07:39;100363.13;;;7.65;100.00
47753;BME280;2038;51.728;6.674;2023-04-15T06:10:06;100365.31;;;7.72;100.00
47753;BME280;2038;51.728;6.674;2023-04-15T06:12:33;100369.06;;;7.77;100.00
47753;BME280;2038;51.728;6.674;2023-04-15T06:14:59;100377.00;;;7.82;100.00
47753;BME280;2038;51.728;6.674;2023-04-15T06:17:25;100380.84;;;7.88;100.00
47753;BME280;2038;51.728;6.674;2023-04-15T06:19:52;100379.38;;;7.92;100.00
47753;BME280;2038;51.728;6.674;2023-04-15T06:22:22;100383.22;;;7.98;100.00
47753;BME280;2038;51.728;6.674;2023-04-15T06:24:49;100385.31;;;8.04;100.00
47753;BME280;2038;51.728;6.674;2023-04-15T06:27:16;100379.88;;;8.11;100.00
47753;BME280;2038;51.728;6.674;2023-04-15T06:29:43;100391.66;;;8.22;100.00
47753;BME280;2038;51.728;6.674;2023-04-15T06:32:09;100389.31;;;8.37;100.00
47753;BME280;2038;51.728;6.674;2023-04-15T06:34:36;100395.88;;;8.46;100.00
47753;BME280;2038;51.728;6.674;2023-04-15T06:37:02;100395.06;;;8.59;100.00
47753;BME280;2038;51.728;6.674;2023-04-15T06:39:29;100394.78;;;8.68;100.00
47753;BME280;2038;51.728;6.674;2023-04-15T06:41:55;100409.38;;;8.70;100.00
47753;BME280;2038;51.728;6.674;2023-04-15T06:44:21;100411.84;;;8.82;100.00
47753;BME280;2038;51.728;6.674;2023-04-15T06:46:47;100410.22;;;8.96;100.00
47753;BME280;2038;51.728;6.674;2023-04-15T06:49:14;100417.09;;;9.10;100.00
47753;BME280;2038;51.728;6.674;2023-04-15T06:51:41;100426.00;;;9.16;100.00
47753;BME280;2038;51.728;6.674;2023-04-15T06:54:07;100416.44;;;9.25;100.00
47753;BME280;2038;51.728;6.674;2023-04-15T06:56:33;100417.69;;;9.32;100.00
47753;BME280;2038;51.728;6.674;2023-04-15T06:59:00;100424.44;;;9.45;100.00
47753;BME280;2038;51.728;6.674;2023-04-15T07:01:27;100431.50;;;9.49;100.00
47753;BME280;2038;51.728;6.674;2023-04-15T07:03:53;100419.06;;;9.53;100.00
47753;BME280;2038;51.728;6.674;2023-04-15T07:06:19;100422.41;;;9.65;100.00
47753;BME280;2038;51.728;6.674;2023-04-15T07:08:46;100428.66;;;9.70;100.00
47753;BME280;2038;51.728;6.674;2023-04-15T07:11:12;100433.66;;;9.82;100.00
47753;BME280;2038;51.728;6.674;2023-04-15T07:13:39;100437.16;;;9.84;100.00
47753;BME280;2038;51.728;6.674;2023-04-15T07:16:05;100439.41;;;9.93;100.00
47753;BME280;2038;51.728;6.674;2023-04-15T07:18:31;100448.81;;;9.94;100.00
47753;BME280;2038;51.728;6.674;2023-04-15T07:20:57;100450.94;;;9.87;100.00
47753;BME280;2038;51.728;6.674;2023-04-15T07:23:24;100454.78;;;9.94;100.00
47753;BME280;2038;51.728;6.674;2023-04-15T07:25:50;100455.84;;;9.98;100.00
47753;BME280;2038;51.728;6.674;2023-04-15T07:28:17;100458.88;;;10.05;100.00
47753;BME280;2038;51.728;6.674;2023-04-15T07:30:43;100458.97;;;10.07;100.00
47753;BME280;2038;51.728;6.674;2023-04-15T07:33:09;100463.47;;;10.24;99.31
47753;BME280;2038;51.728;6.674;2023-04-15T07:35:35;100462.25;;;10.45;100.00
47753;BME280;2038;51.728;6.674;2023-04-15T07:38:01;100465.25;;;10.53;100.00
47753;BME280;2038;51.728;6.674;2023-04-15T07:40:28;100468.41;;;10.49;97.62
47753;BME280;2038;51.728;6.674;2023-04-15T07:42:55;100475.69;;;10.43;96.41
47753;BME280;2038;51.728;6.674;2023-04-15T07:45:23;100476.75;;;10.46;97.55
47753;BME280;2038;51.728;6.674;2023-04-15T07:47:49;100479.09;;;10.43;97.43
47753;BME280;2038;51.728;6.674;2023-04-15T07:50:16;100471.13;;;10.52;97.42
47753;BME280;2038;51.728;6.674;2023-04-15T07:52:44;100480.22;;;10.61;97.51
47753;BME280;2038;51.728;6.674;2023-04-15T07:55:11;100471.81;;;10.77;97.17
47753;BME280;2038;51.728;6.674;2023-04-15T07:57:37;100475.72;;;10.85;97.45
47753;BME280;2038;51.728;6.674;2023-04-15T08:00:04;100485.47;;;10.92;95.72
47753;BME280;2038;51.728;6.674;2023-04-15T08:02:32;100482.31;;;10.96;93.90
47753;BME280;2038;51.728;6.674;2023-04-15T08:04:59;100490.56;;;10.92;93.53
47753;BME280;2038;51.728;6.674;2023-04-15T08:07:28;100491.56;;;10.94;93.38
47753;BME280;2038;51.728;6.674;2023-04-15T08:09:54;100489.47;;;11.16;95.45
47753;BME280;2038;51.728;6.674;2023-04-15T08:12:20;100498.00;;;11.32;94.83
47753;BME280;2038;51.728;6.674;2023-04-15T08:14:47;100505.16;;;11.37;93.01
47753;BME280;2038;51.728;6.674;2023-04-15T08:17:13;100503.22;;;11.33;92.50
47753;BME280;2038;51.728;6.674;2023-04-15T08:19:40;100502.09;;;11.43;93.51
47753;BME280;2038;51.728;6.674;2023-04-15T08:22:07;100510.00;;;11.47;93.12
47753;BME280;2038;51.728;6.674;2023-04-15T08:24:33;100503.38;;;11.36;90.38
47753;BME280;2038;51.728;6.674;2023-04-15T08:27:00;100507.81;;;11.39;90.45
47753;BME280;2038;51.728;6.674;2023-04-15T08:29:29;100512.56;;;11.47;91.70
47753;BME280;2038;51.728;6.674;2023-04-15T08:31:55;100517.81;;;11.36;90.20
47753;BME280;2038;51.728;6.674;2023-04-15T08:34:22;100508.59;;;11.23;89.34
47753;BME280;2038;51.728;6.674;2023-04-15T08:36:48;100507.50;;;11.19;91.63
47753;BME280;2038;51.728;6.674;2023-04-15T08:39:15;100512.09;;;11.25;92.33
47753;BME280;2038;51.728;6.674;2023-04-15T08:41:49;100515.81;;;11.30;92.61
47753;BME280;2038;51.728;6.674;2023-04-15T08:44:22;100519.91;;;11.28;92.61
47753;BME280;2038;51.728;6.674;2023-04-15T08:46:51;100513.19;;;11.43;94.89
47753;BME280;2038;51.728;6.674;2023-04-15T08:49:18;100514.66;;;11.54;93.93
47753;BME280;2038;51.728;6.674;2023-04-15T08:51:47;100522.88;;;11.63;94.12
47753;BME280;2038;51.728;6.674;2023-04-15T08:54:14;100531.16;;;11.74;94.36
47753;BME280;2038;51.728;6.674;2023-04-15T08:56:41;100530.69;;;11.81;93.44
47753;BME280;2038;51.728;6.674;2023-04-15T08:59:08;100538.25;;;11.80;91.53
47753;BME280;2038;51.728;6.674;2023-04-15T09:01:37;100534.81;;;11.64;90.08
47753;BME280;2038;51.728;6.674;2023-04-15T09:04:03;100538.19;;;11.63;90.63
47753;BME280;2038;51.728;6.674;2023-04-15T09:06:32;100542.31;;;11.76;92.81
47753;BME280;2038;51.728;6.674;2023-04-15T09:08:59;100540.66;;;11.91;95.01
47753;BME280;2038;51.728;6.674;2023-04-15T09:11:25;100546.00;;;12.10;94.41
47753;BME280;2038;51.728;6.674;2023-04-15T09:13:52;100552.94;;;12.28;95.64
47753;BME280;2038;51.728;6.674;2023-04-15T09:16:18;100539.13;;;12.40;91.89
47753;BME280;2038;51.728;6.674;2023-04-15T09:18:45;100550.78;;;12.35;90.79
47753;BME280;2038;51.728;6.674;2023-04-15T09:21:13;100554.66;;;12.29;89.98
47753;BME280;2038;51.728;6.674;2023-04-15T09:23:55;100562.47;;;12.15;88.50
47753;BME280;2038;51.728;6.674;2023-04-15T09:26:35;100560.38;;;12.39;90.71
47753;BME280;2038;51.728;6.674;2023-04-15T09:29:08;100553.44;;;12.53;92.60
47753;BME280;2038;51.728;6.674;2023-04-15T09:31:35;100558.59;;;12.69;90.85
47753;BME280;2038;51.728;6.674;2023-04-15T09:34:02;100567.31;;;12.73;90.84
47753;BME280;2038;51.728;6.674;2023-04-15T09:36:28;100573.47;;;12.76;90.32
47753;BME280;2038;51.728;6.674;2023-04-15T09:38:56;100575.84;;;12.73;88.27
47753;BME280;2038;51.728;6.674;2023-04-15T09:41:27;100584.28;;;12.56;89.03
47753;BME280;2038;51.728;6.674;2023-04-15T09:43:54;100587.44;;;12.66;90.77
47753;BME280;2038;51.728;6.674;2023-04-15T09:46:20;100590.06;;;12.68;88.01
47753;BME280;2038;51.728;6.674;2023-04-15T09:49:10;100592.94;;;12.58;87.18
47753;BME280;2038;51.728;6.674;2023-04-15T09:51:38;100593.16;;;12.46;88.37
47753;BME280;2038;51.728;6.674;2023-04-15T09:54:04;100598.31;;;12.48;87.77
47753;BME280;2038;51.728;6.674;2023-04-15T09:56:38;100602.19;;;12.56;86.92
47753;BME280;2038;51.728;6.674;2023-04-15T09:59:08;100591.38;;;12.45;88.78
47753;BME280;2038;51.728;6.674;2023-04-15T10:01:34;100598.06;;;12.58;88.97
47753;BME280;2038;51.728;6.674;2023-04-15T10:04:04;100609.66;;;12.68;87.93
47753;BME280;2038;51.728;6.674;2023-04-15T10:06:31;100606.63;;;12.75;88.03
47753;BME280;2038;51.728;6.674;2023-04-15T10:08:59;100614.31;;;12.75;87.64
47753;BME280;2038;51.728;6.674;2023-04-15T10:11:28;100619.34;;;12.73;87.99
47753;BME280;2038;51.728;6.674;2023-04-15T10:13:56;100619.13;;;12.54;87.14
47753;BME280;2038;51.728;6.674;2023-04-15T10:16:25;100618.72;;;12.46;88.76
47753;BME280;2038;51.728;6.674;2023-04-15T10:18:57;100621.84;;;12.57;88.71
47753;BME280;2038;51.728;6.674;2023-04-15T10:21:27;100617.03;;;12.47;89.06
47753;BME280;2038;51.728;6.674;2023-04-15T10:23:55;100625.59;;;12.47;88.34
47753;BME280;2038;51.728;6.674;2023-04-15T10:26:24;100633.31;;;12.63;87.06
47753;BME280;2038;51.728;6.674;2023-04-15T10:28:51;100621.88;;;12.73;87.25
47753;BME280;2038;51.728;6.674;2023-04-15T10:31:18;100620.56;;;12.80;88.99
47753;BME280;2038;51.728;6.674;2023-04-15T10:33:46;100625.84;;;12.83;89.44
47753;BME280;2038;51.728;6.674;2023-04-15T10:36:13;100631.28;;;12.89;87.93
47753;BME280;2038;51.728;6.674;2023-04-15T10:38:44;100627.34;;;12.79;85.75
47753;BME280;2038;51.728;6.674;2023-04-15T10:41:29;100634.03;;;12.92;87.49
47753;BME280;2038;51.728;6.674;2023-04-15T10:44:02;100635.34;;;12.85;85.73
47753;BME280;2038;51.728;6.674;2023-04-15T10:46:39;100640.94;;;12.78;86.55
47753;BME280;2038;51.728;6.674;2023-04-15T10:49:23;100629.72;;;12.76;86.29
47753;BME280;2038;51.728;6.674;2023-04-15T10:51:52;100633.63;;;12.70;86.71
47753;BME280;2038;51.728;6.674;2023-04-15T10:57:07;100650.28;;;12.78;86.38
47753;BME280;2038;51.728;6.674;2023-04-15T11:02:39;100653.19;;;12.69;86.56
47753;BME280;2038;51.728;6.674;2023-04-15T11:05:14;100653.56;;;12.75;86.56
47753;BME280;2038;51.728;6.674;2023-04-15T11:07:56;100651.88;;;12.76;87.62
47753;BME280;2038;51.728;6.674;2023-04-15T11:13:03;100658.84;;;12.78;85.36
47753;BME280;2038;51.728;6.674;2023-04-15T11:15:40;100663.69;;;12.74;87.08
47753;BME280;2038;51.728;6.674;2023-04-15T11:20:50;100664.56;;;12.74;86.50
47753;BME280;2038;51.728;6.674;2023-04-15T11:23:36;100670.81;;;12.79;87.28
47753;BME280;2038;51.728;6.674;2023-04-15T11:26:11;100662.53;;;12.68;86.34
47753;BME280;2038;51.728;6.674;2023-04-15T11:28:40;100671.63;;;12.78;87.81
47753;BME280;2038;51.728;6.674;2023-04-15T11:31:17;100671.47;;;12.75;87.96
47753;BME280;2038;51.728;6.674;2023-04-15T11:34:04;100676.56;;;12.75;86.33
47753;BME280;2038;51.728;6.674;2023-04-15T11:36:31;100672.81;;;12.85;86.97
47753;BME280;2038;51.728;6.674;2023-04-15T11:38:58;100677.34;;;13.05;86.83
47753;BME280;2038;51.728;6.674;2023-04-15T11:41:25;100685.97;;;13.22;87.07
47753;BME280;2038;51.728;6.674;2023-04-15T11:43:51;100677.91;;;13.30;86.18
47753;BME280;2038;51.728;6.674;2023-04-15T11:46:18;100673.28;;;13.39;85.04
47753;BME280;2038;51.728;6.674;2023-04-15T11:48:45;100684.88;;;13.65;85.65
47753;BME280;2038;51.728;6.674;2023-04-15T11:51:13;100675.97;;;13.75;84.35
47753;BME280;2038;51.728;6.674;2023-04-15T11:53:44;100679.22;;;13.88;84.05
47753;BME280;2038;51.728;6.674;2023-04-15T11:56:20;100677.31;;;13.84;82.59
47753;BME280;2038;51.728;6.674;2023-04-15T11:58:51;100690.31;;;13.87;82.90
47753;BME280;2038;51.728;6.674;2023-04-15T12:01:19;100692.69;;;13.68;83.13
47753;BME280;2038;51.728;6.674;2023-04-15T12:03:46;100700.47;;;13.53;83.15
47753;BME280;2038;51.728;6.674;2023-04-15T12:06:21;100699.31;;;13.32;83.44
47753;BME280;2038;51.728;6.674;2023-04-15T12:14:32;100704.63;;;13.19;84.72
47753;BME280;2038;51.728;6.674;2023-04-15T12:17:07;100710.69;;;13.21;85.42
47753;BME280;2038;51.728;6.674;2023-04-15T12:19:42;100713.88;;;13.17;84.45
47753;BME280;2038;51.728;6.674;2023-04-15T12:22:15;100712.09;;;13.16;84.98
47753;BME280;2038;51.728;6.674;2023-04-15T12:24:43;100719.66;;;13.29;85.95
47753;BME280;2038;51.728;6.674;2023-04-15T12:27:13;100721.66;;;13.35;85.30
47753;BME280;2038;51.728;6.674;2023-04-15T12:29:41;100723.38;;;13.50;85.27
47753;BME280;2038;51.728;6.674;2023-04-15T12:32:13;100729.22;;;13.48;82.92
47753;BME280;2038;51.728;6.674;2023-04-15T12:34:48;100723.91;;;13.45;82.23
47753;BME280;2038;51.728;6.674;2023-04-15T12:37:15;100726.03;;;13.52;82.54
47753;BME280;2038;51.728;6.674;2023-04-15T12:39:44;100730.94;;;13.49;82.76
47753;BME280;2038;51.728;6.674;2023-04-15T12:42:13;100732.41;;;13.44;83.02
47753;BME280;2038;51.728;6.674;2023-04-15T12:44:40;100747.53;;;13.39;82.76
47753;BME280;2038;51.728;6.674;2023-04-15T12:47:07;100741.00;;;13.30;83.15
47753;BME280;2038;51.728;6.674;2023-04-15T12:49:34;100741.47;;;13.23;83.30
47753;BME280;2038;51.728;6.674;2023-04-15T12:52:02;100742.13;;;13.19;84.46
47753;BME280;2038;51.728;6.674;2023-04-15T12:54:30;100744.03;;;13.08;85.65
47753;BME280;2038;51.728;6.674;2023-04-15T12:56:57;100750.16;;;13.10;85.98
47753;BME280;2038;51.728;6.674;2023-04-15T12:59:24;100755.88;;;13.06;85.33
47753;BME280;2038;51.728;6.674;2023-04-15T13:01:51;100757.72;;;13.08;85.48
47753;BME280;2038;51.728;6.674;2023-04-15T13:04:18;100753.41;;;13.22;86.24
47753;BME280;2038;51.728;6.674;2023-04-15T13:06:45;100763.94;;;13.28;85.26
47753;BME280;2038;51.728;6.674;2023-04-15T13:09:11;100759.28;;;13.36;85.39
47753;BME280;2038;51.728;6.674;2023-04-15T13:11:37;100769.53;;;13.36;84.10
47753;BME280;2038;51.728;6.674;2023-04-15T13:14:06;100768.69;;;13.37;83.60
47753;BME280;2038;51.728;6.674;2023-04-15T13:16:34;100779.31;;;13.28;83.44
47753;BME280;2038;51.728;6.674;2023-04-15T13:19:02;100782.91;;;13.16;83.60
47753;BME280;2038;51.728;6.674;2023-04-15T13:21:29;100779.16;;;12.96;85.10
47753;BME280;2038;51.728;6.674;2023-04-15T13:23:59;100786.78;;;12.94;84.67